createdAt,value
2018-02-20T00:00:29.956Z,0.00
2018-02-20T00:01:29.968Z,0.00
2018-02-20T00:02:29.969Z,0.00
2018-02-20T00:03:29.984Z,0.00
2018-02-20T00:04:29.991Z,0.00
2018-02-20T00:05:30.015Z,0.00
2018-02-20T00:06:30.012Z,0.00
2018-02-20T00:07:30.013Z,0.00
2018-02-20T00:08:30.033Z,0.00
2018-02-20T00:09:30.049Z,0.00
2018-02-20T00:10:30.042Z,0.00
2018-02-20T00:11:30.056Z,0.00
2018-02-20T00:12:30.062Z,0.00
2018-02-20T00:13:30.069Z,0.00
2018-02-20T00:14:30.084Z,0.00
2018-02-20T00:15:30.088Z,0.00
2018-02-20T00:16:30.099Z,0.00
2018-02-20T00:17:30.108Z,0.00
2018-02-20T00:18:30.118Z,0.00
2018-02-20T00:19:30.139Z,0.00
2018-02-20T00:20:30.146Z,0.00
2018-02-20T00:21:30.171Z,0.00
2018-02-20T00:22:30.165Z,0.00
2018-02-20T00:23:30.175Z,0.00
2018-02-20T00:24:30.182Z,0.00
2018-02-20T00:25:30.192Z,0.00
2018-02-20T00:26:30.198Z,0.00
2018-02-20T00:27:30.212Z,0.00
2018-02-20T00:28:30.213Z,0.00
2018-02-20T00:29:30.221Z,0.00
2018-02-20T00:30:30.236Z,0.00
2018-02-20T00:31:30.241Z,0.00
2018-02-20T00:32:30.256Z,0.00
2018-02-20T00:33:30.267Z,0.00
2018-02-20T00:34:30.268Z,0.00
2018-02-20T00:35:30.282Z,0.00
2018-02-20T00:36:30.283Z,0.00
2018-02-20T00:37:30.296Z,0.00
2018-02-20T00:38:30.306Z,0.00
2018-02-20T00:39:30.320Z,0.00
2018-02-20T00:40:30.329Z,0.00
2018-02-20T00:41:30.337Z,0.00
2018-02-20T00:42:30.337Z,0.00
2018-02-20T00:43:30.354Z,0.00
2018-02-20T00:44:30.357Z,0.00
2018-02-20T00:45:30.370Z,0.00
2018-02-20T00:46:30.379Z,0.00
2018-02-20T00:47:30.388Z,0.00
2018-02-20T00:48:30.397Z,0.00
2018-02-20T00:49:30.413Z,0.00
2018-02-20T00:50:30.409Z,0.00
2018-02-20T00:51:30.427Z,0.00
2018-02-20T00:52:30.429Z,0.00
2018-02-20T00:53:30.439Z,0.00
2018-02-20T00:54:30.453Z,0.00
2018-02-20T00:55:30.454Z,0.00
2018-02-20T00:56:30.472Z,0.00
2018-02-20T00:57:30.478Z,0.00
2018-02-20T00:58:30.486Z,0.00
2018-02-20T00:59:30.504Z,0.00
2018-02-20T01:00:30.497Z,0.00
2018-02-20T01:01:30.506Z,0.00
2018-02-20T01:02:30.523Z,0.00
2018-02-20T01:03:30.528Z,0.00
2018-02-20T01:04:30.542Z,0.00
2018-02-20T01:05:30.549Z,0.00
2018-02-20T01:06:30.553Z,0.00
2018-02-20T01:07:30.564Z,0.00
2018-02-20T01:08:30.569Z,0.00
2018-02-20T01:09:30.578Z,0.00
2018-02-20T01:10:30.589Z,0.00
2018-02-20T01:11:30.600Z,0.00
2018-02-20T01:12:30.607Z,0.00
2018-02-20T01:13:30.651Z,0.00
2018-02-20T01:14:30.625Z,0.00
2018-02-20T01:15:30.636Z,0.00
2018-02-20T01:16:30.649Z,0.00
2018-02-20T01:17:30.659Z,0.00
2018-02-20T01:18:30.659Z,0.00
2018-02-20T01:19:30.671Z,0.00
2018-02-20T01:20:30.676Z,0.00
2018-02-20T01:21:30.684Z,0.00
2018-02-20T01:22:30.698Z,0.00
2018-02-20T01:23:30.705Z,0.00
2018-02-20T01:24:30.720Z,0.00
2018-02-20T01:25:30.728Z,0.00
2018-02-20T01:26:30.743Z,0.00
2018-02-20T01:27:30.758Z,0.00
2018-02-20T01:28:30.752Z,0.00
2018-02-20T01:29:30.757Z,0.00
2018-02-20T01:30:30.786Z,0.00
2018-02-20T01:31:30.779Z,0.00
2018-02-20T01:32:30.790Z,0.00
2018-02-20T01:33:30.796Z,0.00
2018-02-20T01:34:30.801Z,0.00
2018-02-20T01:35:30.817Z,0.00
2018-02-20T01:36:30.820Z,0.00
2018-02-20T01:37:30.828Z,0.00
2018-02-20T01:38:30.845Z,0.00
2018-02-20T01:39:30.851Z,0.00
2018-02-20T01:40:30.859Z,0.00
2018-02-20T01:41:30.867Z,0.00
2018-02-20T01:42:30.872Z,0.00
2018-02-20T01:43:30.885Z,0.00
2018-02-20T01:44:30.895Z,0.00
2018-02-20T01:45:30.902Z,0.00
2018-02-20T01:46:30.912Z,0.00
2018-02-20T01:47:30.921Z,0.00
2018-02-20T01:48:30.932Z,0.00
2018-02-20T01:49:30.940Z,0.00
2018-02-20T01:50:30.945Z,0.00
2018-02-20T01:51:30.958Z,0.00
2018-02-20T01:52:30.960Z,0.00
2018-02-20T01:53:30.972Z,0.00
2018-02-20T01:54:30.981Z,0.00
2018-02-20T01:55:30.990Z,0.00
2018-02-20T01:56:31.001Z,0.00
2018-02-20T01:57:31.014Z,0.00
2018-02-20T01:58:31.015Z,0.00
2018-02-20T01:59:31.029Z,0.00
2018-02-20T02:00:31.283Z,0.00
2018-02-20T02:01:31.043Z,0.00
2018-02-20T02:02:31.054Z,0.00
2018-02-20T02:03:31.063Z,0.00
2018-02-20T02:04:31.070Z,0.00
2018-02-20T02:05:31.079Z,0.00
2018-02-20T02:06:31.090Z,0.00
2018-02-20T02:07:31.099Z,0.00
2018-02-20T02:08:31.106Z,0.00
2018-02-20T02:09:31.113Z,0.00
2018-02-20T02:10:31.126Z,0.00
2018-02-20T02:11:31.138Z,0.00
2018-02-20T02:12:31.148Z,0.00
2018-02-20T02:13:31.151Z,0.00
2018-02-20T02:14:31.156Z,0.00
2018-02-20T02:15:31.177Z,0.00
2018-02-20T02:16:31.174Z,0.00
2018-02-20T02:17:31.185Z,0.00
2018-02-20T02:18:31.199Z,0.00
2018-02-20T02:19:31.201Z,0.00
2018-02-20T02:20:31.218Z,0.00
2018-02-20T02:21:31.230Z,0.00
2018-02-20T02:22:31.226Z,0.00
2018-02-20T02:23:31.248Z,0.00
2018-02-20T02:24:31.247Z,0.00
2018-02-20T02:25:31.259Z,0.00
2018-02-20T02:26:31.269Z,0.00
2018-02-20T02:27:31.272Z,0.00
2018-02-20T02:28:31.292Z,0.00
2018-02-20T02:29:31.292Z,0.00
2018-02-20T02:30:31.298Z,0.00
2018-02-20T02:31:31.312Z,0.00
2018-02-20T02:32:31.337Z,0.00
2018-02-20T02:33:31.331Z,0.00
2018-02-20T02:34:31.339Z,0.00
2018-02-20T02:35:31.361Z,0.00
2018-02-20T02:36:31.375Z,0.00
2018-02-20T02:37:31.368Z,0.00
2018-02-20T02:38:31.383Z,0.00
2018-02-20T02:39:31.397Z,0.00
2018-02-20T02:40:31.400Z,0.00
2018-02-20T02:41:31.410Z,0.00
2018-02-20T02:42:31.427Z,0.00
2018-02-20T02:43:31.432Z,0.00
2018-02-20T02:44:31.442Z,0.00
2018-02-20T02:45:31.457Z,0.00
2018-02-20T02:46:31.457Z,0.00
2018-02-20T02:47:31.483Z,0.00
2018-02-20T02:48:31.476Z,0.00
2018-02-20T02:49:31.482Z,0.00
2018-02-20T02:50:31.498Z,0.00
2018-02-20T02:51:31.512Z,0.00
2018-02-20T02:52:31.510Z,0.00
2018-02-20T02:53:31.523Z,0.00
2018-02-20T02:54:31.533Z,0.00
2018-02-20T02:55:31.540Z,0.00
2018-02-20T02:56:31.544Z,0.00
2018-02-20T02:57:31.551Z,0.00
2018-02-20T02:58:31.567Z,0.00
2018-02-20T02:59:31.582Z,0.00
2018-02-20T03:00:31.589Z,0.00
2018-02-20T03:01:31.591Z,0.00
2018-02-20T03:02:31.595Z,0.00
2018-02-20T03:03:31.608Z,0.00
2018-02-20T03:04:31.611Z,0.00
2018-02-20T03:05:31.621Z,0.00
2018-02-20T03:06:31.638Z,0.00
2018-02-20T03:07:31.641Z,0.00
2018-02-20T03:08:31.655Z,0.00
2018-02-20T03:09:31.662Z,0.00
2018-02-20T03:10:31.672Z,0.00
2018-02-20T03:11:31.679Z,0.00
2018-02-20T03:12:31.683Z,0.00
2018-02-20T03:13:31.692Z,0.00
2018-02-20T03:14:31.709Z,0.00
2018-02-20T03:15:31.714Z,0.00
2018-02-20T03:16:31.726Z,0.00
2018-02-20T03:17:31.736Z,0.00
2018-02-20T03:18:31.739Z,0.00
2018-02-20T03:19:31.768Z,0.00
2018-02-20T03:20:31.757Z,0.00
2018-02-20T03:21:31.765Z,0.00
2018-02-20T03:22:31.784Z,0.00
2018-02-20T03:23:31.783Z,0.00
2018-02-20T03:24:31.795Z,0.00
2018-02-20T03:25:31.803Z,0.00
2018-02-20T03:26:31.813Z,0.00
2018-02-20T03:27:31.824Z,0.00
2018-02-20T03:28:31.830Z,0.00
2018-02-20T03:29:31.840Z,0.00
2018-02-20T03:30:31.851Z,0.00
2018-02-20T03:31:31.853Z,0.00
2018-02-20T03:32:31.875Z,0.00
2018-02-20T03:33:31.874Z,0.00
2018-02-20T03:34:31.881Z,0.00
2018-02-20T03:35:31.891Z,0.00
2018-02-20T03:36:31.897Z,0.00
2018-02-20T03:37:31.906Z,0.00
2018-02-20T03:38:31.920Z,0.00
2018-02-20T03:39:31.925Z,0.00
2018-02-20T03:40:31.938Z,0.00
2018-02-20T03:41:31.952Z,0.00
2018-02-20T03:42:31.952Z,0.00
2018-02-20T03:43:31.967Z,0.00
2018-02-20T03:44:31.974Z,0.00
2018-02-20T03:45:31.981Z,0.00
2018-02-20T03:46:31.995Z,0.00
2018-02-20T03:47:31.996Z,0.00
2018-02-20T03:48:32.011Z,0.00
2018-02-20T03:49:32.022Z,0.00
2018-02-20T03:50:32.025Z,0.00
2018-02-20T03:51:32.038Z,0.00
2018-02-20T03:52:32.042Z,0.00
2018-02-20T03:53:32.051Z,0.00
2018-02-20T03:54:32.068Z,0.00
2018-02-20T03:55:32.067Z,0.00
2018-02-20T03:56:32.082Z,0.00
2018-02-20T03:57:32.090Z,0.00
2018-02-20T03:58:32.094Z,0.00
2018-02-20T03:59:32.124Z,0.00
2018-02-20T04:00:32.117Z,0.00
2018-02-20T04:01:32.122Z,0.00
2018-02-20T04:02:32.135Z,0.00
2018-02-20T04:03:32.149Z,0.00
2018-02-20T04:04:32.150Z,0.00
2018-02-20T04:05:32.165Z,0.00
2018-02-20T04:06:32.164Z,0.00
2018-02-20T04:07:32.177Z,0.00
2018-02-20T04:08:32.182Z,0.00
2018-02-20T04:09:32.190Z,0.00
2018-02-20T04:10:32.207Z,0.00
2018-02-20T04:11:32.212Z,0.00
2018-02-20T04:12:32.229Z,0.00
2018-02-20T04:13:32.232Z,0.00
2018-02-20T04:14:32.241Z,0.00
2018-02-20T04:15:32.250Z,0.00
2018-02-20T04:16:32.252Z,0.00
2018-02-20T04:17:32.264Z,0.00
2018-02-20T04:18:32.275Z,0.00
2018-02-20T04:19:32.284Z,0.00
2018-02-20T04:20:32.298Z,0.00
2018-02-20T04:21:32.317Z,0.00
2018-02-20T04:22:32.309Z,0.00
2018-02-20T04:23:32.335Z,0.00
2018-02-20T04:24:32.328Z,0.00
2018-02-20T04:25:32.333Z,0.00
2018-02-20T04:26:32.350Z,0.00
2018-02-20T04:27:32.352Z,0.00
2018-02-20T04:28:32.366Z,0.00
2018-02-20T04:29:32.375Z,0.00
2018-02-20T04:30:32.398Z,0.00
2018-02-20T04:31:32.394Z,0.00
2018-02-20T04:32:32.399Z,0.00
2018-02-20T04:33:32.398Z,0.00
2018-02-20T04:34:32.412Z,0.00
2018-02-20T04:35:32.419Z,0.00
2018-02-20T04:36:32.431Z,0.00
2018-02-20T04:37:32.435Z,0.00
2018-02-20T04:38:32.442Z,0.00
2018-02-20T04:39:32.452Z,0.00
2018-02-20T04:40:32.459Z,0.00
2018-02-20T04:41:32.467Z,0.00
2018-02-20T04:42:32.481Z,0.00
2018-02-20T04:43:32.480Z,0.00
2018-02-20T04:44:32.494Z,0.00
2018-02-20T04:45:32.503Z,0.00
2018-02-20T04:46:32.510Z,0.00
2018-02-20T04:47:32.523Z,0.00
2018-02-20T04:48:32.531Z,0.00
2018-02-20T04:49:32.536Z,0.00
2018-02-20T04:50:32.549Z,0.00
2018-02-20T04:51:32.553Z,0.00
2018-02-20T04:52:32.566Z,0.00
2018-02-20T04:53:32.574Z,0.00
2018-02-20T04:54:32.582Z,0.00
2018-02-20T04:55:32.592Z,0.00
2018-02-20T04:56:32.603Z,0.00
2018-02-20T04:57:32.606Z,0.00
2018-02-20T04:58:32.617Z,0.00
2018-02-20T04:59:32.626Z,0.00
2018-02-20T05:00:32.639Z,0.00
2018-02-20T05:01:32.654Z,0.00
2018-02-20T05:02:32.664Z,0.00
2018-02-20T05:03:32.665Z,0.00
2018-02-20T05:04:32.683Z,0.00
2018-02-20T05:05:32.680Z,0.00
2018-02-20T05:06:32.702Z,0.00
2018-02-20T05:07:32.697Z,0.00
2018-02-20T05:08:32.711Z,0.00
2018-02-20T05:09:32.720Z,0.00
2018-02-20T05:10:32.769Z,0.00
2018-02-20T05:11:32.735Z,0.00
2018-02-20T05:12:32.742Z,0.00
2018-02-20T05:13:32.753Z,0.00
2018-02-20T05:14:32.763Z,0.00
2018-02-20T05:15:32.765Z,0.00
2018-02-20T05:16:32.777Z,0.00
2018-02-20T05:17:32.777Z,0.00
2018-02-20T05:18:32.787Z,0.00
2018-02-20T05:19:32.807Z,0.00
2018-02-20T05:20:32.802Z,0.00
2018-02-20T05:21:32.809Z,0.00
2018-02-20T05:22:32.822Z,0.00
2018-02-20T05:23:32.825Z,0.00
2018-02-20T05:24:32.849Z,0.00
2018-02-20T05:25:32.845Z,0.00
2018-02-20T05:26:32.855Z,0.00
2018-02-20T05:27:32.858Z,0.00
2018-02-20T05:28:32.879Z,0.00
2018-02-20T05:29:32.884Z,0.00
2018-02-20T05:30:32.886Z,0.00
2018-02-20T05:31:32.900Z,0.00
2018-02-20T05:32:32.906Z,0.00
2018-02-20T05:33:32.915Z,0.00
2018-02-20T05:34:32.930Z,0.00
2018-02-20T05:35:32.933Z,0.00
2018-02-20T05:36:32.949Z,0.00
2018-02-20T05:37:32.956Z,0.00
2018-02-20T05:38:32.966Z,0.00
2018-02-20T05:39:32.975Z,0.00
2018-02-20T05:40:32.981Z,4.00
2018-02-20T05:41:32.986Z,4.00
2018-02-20T05:42:33.001Z,0.00
2018-02-20T05:43:33.004Z,4.00
2018-02-20T05:44:33.020Z,4.00
2018-02-20T05:45:33.030Z,8.00
2018-02-20T05:46:33.032Z,4.00
2018-02-20T05:47:33.040Z,8.00
2018-02-20T05:48:33.052Z,8.00
2018-02-20T05:49:33.057Z,8.00
2018-02-20T05:50:33.069Z,12.00
2018-02-20T05:51:33.075Z,12.00
2018-02-20T05:52:33.089Z,16.00
2018-02-20T05:53:33.097Z,16.00
2018-02-20T05:54:33.103Z,24.00
2018-02-20T05:55:33.117Z,24.00
2018-02-20T05:56:33.119Z,28.00
2018-02-20T05:57:33.133Z,36.00
2018-02-20T05:58:33.146Z,40.00
2018-02-20T05:59:33.146Z,44.00
2018-02-20T06:00:33.157Z,52.00
2018-02-20T06:01:33.155Z,60.00
2018-02-20T06:02:33.163Z,68.00
2018-02-20T06:03:33.174Z,76.00
2018-02-20T06:04:33.177Z,84.00
2018-02-20T06:05:33.187Z,96.00
2018-02-20T06:06:33.200Z,108.00
2018-02-20T06:07:33.209Z,120.00
2018-02-20T06:08:33.216Z,136.00
2018-02-20T06:09:33.243Z,152.00
2018-02-20T06:10:33.234Z,164.00
2018-02-20T06:11:33.246Z,180.00
2018-02-20T06:12:33.253Z,196.00
2018-02-20T06:13:33.258Z,216.00
2018-02-20T06:14:33.275Z,236.00
2018-02-20T06:15:33.276Z,256.00
2018-02-20T06:16:33.289Z,276.00
2018-02-20T06:17:33.298Z,300.00
2018-02-20T06:18:33.302Z,324.00
2018-02-20T06:19:33.320Z,352.00
2018-02-20T06:20:33.319Z,376.00
2018-02-20T06:21:33.328Z,404.00
2018-02-20T06:22:33.341Z,432.00
2018-02-20T06:23:33.335Z,460.00
2018-02-20T06:24:33.349Z,488.00
2018-02-20T06:25:33.356Z,520.00
2018-02-20T06:26:33.361Z,544.00
2018-02-20T06:27:33.372Z,576.00
2018-02-20T06:28:33.381Z,604.00
2018-02-20T06:29:33.385Z,636.00
2018-02-20T06:30:33.398Z,672.00
2018-02-20T06:31:33.407Z,704.00
2018-02-20T06:32:33.422Z,740.00
2018-02-20T06:33:33.427Z,784.00
2018-02-20T06:34:33.433Z,824.00
2018-02-20T06:35:33.451Z,864.00
2018-02-20T06:36:33.448Z,908.00
2018-02-20T06:37:33.462Z,960.00
2018-02-20T06:38:33.470Z,1020.00
2018-02-20T06:39:33.478Z,1084.00
2018-02-20T06:40:33.483Z,1156.00
2018-02-20T06:41:33.486Z,1236.00
2018-02-20T06:42:33.490Z,1308.00
2018-02-20T06:43:33.508Z,1380.00
2018-02-20T06:44:33.506Z,1444.00
2018-02-20T06:45:33.515Z,1508.00
2018-02-20T06:46:33.532Z,1576.00
2018-02-20T06:47:33.534Z,1644.00
2018-02-20T06:48:33.551Z,1716.00
2018-02-20T06:49:33.555Z,1780.00
2018-02-20T06:50:33.572Z,1832.00
2018-02-20T06:51:33.575Z,1876.00
2018-02-20T06:52:33.584Z,1920.00
2018-02-20T06:53:33.588Z,1968.00
2018-02-20T06:54:33.617Z,2012.00
2018-02-20T06:55:33.609Z,2068.00
2018-02-20T06:56:33.638Z,2128.00
2018-02-20T06:57:33.615Z,2192.00
2018-02-20T06:58:33.623Z,2256.00
2018-02-20T06:59:33.634Z,2336.00
2018-02-20T07:00:33.638Z,2424.00
2018-02-20T07:01:33.650Z,2508.00
2018-02-20T07:02:33.676Z,2580.00
2018-02-20T07:03:33.667Z,2664.00
2018-02-20T07:04:33.678Z,2756.00
2018-02-20T07:05:33.689Z,2856.00
2018-02-20T07:06:33.694Z,2944.00
2018-02-20T07:07:33.707Z,3040.00
2018-02-20T07:08:33.708Z,3136.00
2018-02-20T07:09:33.720Z,3236.00
2018-02-20T07:10:33.731Z,3328.00
2018-02-20T07:11:33.759Z,3420.00
2018-02-20T07:12:33.752Z,3488.00
2018-02-20T07:13:33.762Z,3544.00
2018-02-20T07:14:33.763Z,3604.00
2018-02-20T07:15:33.777Z,3652.00
2018-02-20T07:16:33.782Z,3684.00
2018-02-20T07:17:33.793Z,3748.00
2018-02-20T07:18:33.789Z,3800.00
2018-02-20T07:19:33.794Z,3864.00
2018-02-20T07:20:33.811Z,3932.00
2018-02-20T07:21:33.815Z,3984.00
2018-02-20T07:22:33.820Z,4048.00
2018-02-20T07:23:33.839Z,4108.00
2018-02-20T07:24:33.839Z,4148.00
2018-02-20T07:25:33.849Z,4208.00
2018-02-20T07:26:33.862Z,4256.00
2018-02-20T07:27:33.863Z,4292.00
2018-02-20T07:28:33.876Z,4352.00
2018-02-20T07:29:33.890Z,4400.00
2018-02-20T07:30:33.892Z,4444.00
2018-02-20T07:31:33.937Z,4472.00
2018-02-20T07:32:33.912Z,4468.00
2018-02-20T07:33:33.928Z,4484.00
2018-02-20T07:34:33.947Z,4524.00
2018-02-20T07:35:33.945Z,4560.00
2018-02-20T07:36:33.945Z,4572.00
2018-02-20T07:37:33.955Z,4596.00
2018-02-20T07:38:33.973Z,4640.00
2018-02-20T07:39:33.972Z,4676.00
2018-02-20T07:40:33.989Z,4688.00
2018-02-20T07:41:33.992Z,4760.00
2018-02-20T07:42:33.998Z,4824.00
2018-02-20T07:43:34.015Z,4804.00
2018-02-20T07:44:34.016Z,4872.00
2018-02-20T07:45:34.027Z,4916.00
2018-02-20T07:46:34.039Z,4912.00
2018-02-20T07:47:34.042Z,4936.00
2018-02-20T07:48:34.067Z,4924.00
2018-02-20T07:49:34.065Z,4968.00
2018-02-20T07:50:34.069Z,4980.00
2018-02-20T07:51:34.083Z,4992.00
2018-02-20T07:52:34.088Z,5048.00
2018-02-20T07:53:34.096Z,5108.00
2018-02-20T07:54:34.108Z,5196.00
2018-02-20T07:55:34.115Z,5328.00
2018-02-20T07:56:34.132Z,5380.00
2018-02-20T07:57:34.143Z,5456.00
2018-02-20T07:58:34.142Z,5580.00
2018-02-20T07:59:34.161Z,5660.00
2018-02-20T08:00:34.162Z,5664.00
2018-02-20T08:01:34.172Z,5680.00
2018-02-20T08:02:34.179Z,5740.00
2018-02-20T08:03:34.187Z,5768.00
2018-02-20T08:04:34.203Z,5736.00
2018-02-20T08:05:34.211Z,5712.00
2018-02-20T08:06:34.213Z,5800.00
2018-02-20T08:07:34.227Z,5724.00
2018-02-20T08:08:34.235Z,5868.00
2018-02-20T08:09:34.243Z,5896.00
2018-02-20T08:10:34.252Z,5988.00
2018-02-20T08:11:34.256Z,6120.00
2018-02-20T08:12:34.268Z,6176.00
2018-02-20T08:13:34.278Z,6324.00
2018-02-20T08:14:34.282Z,6416.00
2018-02-20T08:15:34.297Z,6444.00
2018-02-20T08:16:34.301Z,6544.00
2018-02-20T08:17:34.311Z,6588.00
2018-02-20T08:18:34.323Z,6624.00
2018-02-20T08:19:34.335Z,6600.00
2018-02-20T08:20:34.339Z,6728.00
2018-02-20T08:21:34.353Z,6820.00
2018-02-20T08:22:34.352Z,6920.00
2018-02-20T08:23:34.368Z,6900.00
2018-02-20T08:24:34.376Z,6732.00
2018-02-20T08:25:34.384Z,6820.00
2018-02-20T08:26:34.394Z,6916.00
2018-02-20T08:27:34.399Z,6588.00
2018-02-20T08:28:34.414Z,6632.00
2018-02-20T08:29:34.423Z,6684.00
2018-02-20T08:30:34.426Z,6656.00
2018-02-20T08:31:34.441Z,6696.00
2018-02-20T08:32:34.441Z,6660.00
2018-02-20T08:33:34.451Z,6664.00
2018-02-20T08:34:34.467Z,6676.00
2018-02-20T08:35:34.473Z,6656.00
2018-02-20T08:36:34.496Z,6756.00
2018-02-20T08:37:34.567Z,6728.00
2018-02-20T08:38:34.509Z,6648.00
2018-02-20T08:39:34.524Z,6608.00
2018-02-20T08:40:34.526Z,6472.00
2018-02-20T08:41:34.535Z,6484.00
2018-02-20T08:42:34.547Z,6316.00
2018-02-20T08:43:34.562Z,6580.00
2018-02-20T08:44:34.571Z,6552.00
2018-02-20T08:45:34.576Z,6508.00
2018-02-20T08:46:34.581Z,6396.00
2018-02-20T08:47:34.595Z,6304.00
2018-02-20T08:48:34.597Z,6280.00
2018-02-20T08:49:34.609Z,6216.00
2018-02-20T08:50:34.622Z,6172.00
2018-02-20T08:51:34.627Z,6384.00
2018-02-20T08:52:34.651Z,6332.00
2018-02-20T08:53:34.649Z,6408.00
2018-02-20T08:54:34.704Z,6440.00
2018-02-20T08:55:34.679Z,6320.00
2018-02-20T08:56:34.682Z,6352.00
2018-02-20T08:57:34.696Z,6424.00
2018-02-20T08:58:34.704Z,6444.00
2018-02-20T08:59:34.708Z,6284.00
2018-02-20T09:00:34.726Z,6188.00
2018-02-20T09:01:34.733Z,6256.00
2018-02-20T09:02:34.739Z,6312.00
2018-02-20T09:03:34.754Z,6312.00
2018-02-20T09:04:34.756Z,6236.00
2018-02-20T09:05:34.768Z,6196.00
2018-02-20T09:06:34.778Z,6140.00
2018-02-20T09:07:34.784Z,6128.00
2018-02-20T09:08:34.804Z,6092.00
2018-02-20T09:09:34.813Z,6024.00
2018-02-20T09:10:34.818Z,6012.00
2018-02-20T09:11:34.836Z,6072.00
2018-02-20T09:12:34.835Z,6048.00
2018-02-20T09:13:34.862Z,5952.00
2018-02-20T09:14:34.862Z,5884.00
2018-02-20T09:15:34.863Z,5840.00
2018-02-20T09:16:34.878Z,5784.00
2018-02-20T09:17:34.887Z,5832.00
2018-02-20T09:18:34.901Z,5788.00
2018-02-20T09:19:34.902Z,5720.00
2018-02-20T09:20:34.923Z,5648.00
2018-02-20T09:21:34.929Z,5592.00
2018-02-20T09:22:34.958Z,5536.00
2018-02-20T09:23:34.948Z,5476.00
2018-02-20T09:24:34.960Z,5420.00
2018-02-20T09:25:34.970Z,5384.00
2018-02-20T09:26:34.987Z,5360.00
2018-02-20T09:27:34.989Z,5324.00
2018-02-20T09:28:34.996Z,5252.00
2018-02-20T09:29:35.002Z,5192.00
2018-02-20T09:30:35.014Z,5120.00
2018-02-20T09:31:35.017Z,5056.00
2018-02-20T09:32:35.043Z,5008.00
2018-02-20T09:33:35.056Z,4924.00
2018-02-20T09:34:35.056Z,4872.00
2018-02-20T09:35:35.084Z,4828.00
2018-02-20T09:36:35.077Z,4784.00
2018-02-20T09:37:35.086Z,4740.00
2018-02-20T09:38:35.098Z,4724.00
2018-02-20T09:39:35.100Z,4708.00
2018-02-20T09:40:35.115Z,4696.00
2018-02-20T09:41:35.123Z,4700.00
2018-02-20T09:42:35.127Z,4712.00
2018-02-20T09:43:35.165Z,4752.00
2018-02-20T09:44:35.163Z,4808.00
2018-02-20T09:45:35.171Z,4840.00
2018-02-20T09:46:35.176Z,4872.00
2018-02-20T09:47:35.191Z,4940.00
2018-02-20T09:48:35.195Z,4976.00
2018-02-20T09:49:35.205Z,5044.00
2018-02-20T09:50:35.240Z,5080.00
2018-02-20T09:51:35.225Z,5156.00
2018-02-20T09:52:35.239Z,5260.00
2018-02-20T09:53:35.243Z,5352.00
2018-02-20T09:54:35.259Z,5496.00
2018-02-20T09:55:35.275Z,5680.00
2018-02-20T09:56:35.278Z,5856.00
2018-02-20T09:57:35.289Z,5988.00
2018-02-20T09:58:35.305Z,6116.00
2018-02-20T09:59:35.319Z,6292.00
2018-02-20T10:00:35.322Z,6452.00
2018-02-20T10:01:35.326Z,6552.00
2018-02-20T10:02:35.333Z,6636.00
2018-02-20T10:03:35.361Z,6684.00
2018-02-20T10:04:35.349Z,6780.00
2018-02-20T10:05:35.358Z,6824.00
2018-02-20T10:06:35.384Z,6984.00
2018-02-20T10:07:35.395Z,7092.00
2018-02-20T10:08:35.419Z,7028.00
2018-02-20T10:09:35.411Z,7096.00
2018-02-20T10:10:35.415Z,7140.00
2018-02-20T10:11:35.427Z,7168.00
2018-02-20T10:12:35.443Z,7132.00
2018-02-20T10:13:35.447Z,7148.00
2018-02-20T10:14:35.455Z,7196.00
2018-02-20T10:15:35.473Z,7252.00
2018-02-20T10:16:35.496Z,7104.00
2018-02-20T10:17:35.508Z,7028.00
2018-02-20T10:18:35.503Z,7224.00
2018-02-20T10:19:35.513Z,7244.00
2018-02-20T10:20:35.519Z,7248.00
2018-02-20T10:21:35.542Z,7176.00
2018-02-20T10:22:35.548Z,7340.00
2018-02-20T10:23:35.558Z,7544.00
2018-02-20T10:24:35.566Z,7740.00
2018-02-20T10:25:35.580Z,7928.00
2018-02-20T10:26:35.593Z,7960.00
2018-02-20T10:27:35.600Z,8172.00
2018-02-20T10:28:35.600Z,8356.00
2018-02-20T10:29:35.609Z,8532.00
2018-02-20T10:30:35.635Z,8708.00
2018-02-20T10:31:35.643Z,8812.00
2018-02-20T10:32:35.653Z,8880.00
2018-02-20T10:33:35.662Z,9028.00
2018-02-20T10:34:35.667Z,9108.00
2018-02-20T10:35:35.694Z,9144.00
2018-02-20T10:36:35.744Z,9248.00
2018-02-20T10:37:35.703Z,9316.00
2018-02-20T10:38:35.724Z,9296.00
2018-02-20T10:39:35.725Z,9496.00
2018-02-20T10:40:35.744Z,9540.00
2018-02-20T10:41:35.745Z,9384.00
2018-02-20T10:42:35.764Z,9268.00
2018-02-20T10:43:35.779Z,9228.00
2018-02-20T10:44:35.780Z,9256.00
2018-02-20T10:45:35.787Z,9252.00
2018-02-20T10:46:35.807Z,9260.00
2018-02-20T10:47:35.811Z,9304.00
2018-02-20T10:48:35.833Z,9348.00
2018-02-20T10:49:35.842Z,9448.00
2018-02-20T10:50:35.867Z,9508.00
2018-02-20T10:51:35.858Z,9572.00
2018-02-20T10:52:35.880Z,9652.00
2018-02-20T10:53:35.888Z,9564.00
2018-02-20T10:54:35.903Z,9480.00
2018-02-20T10:55:35.907Z,9380.00
2018-02-20T10:56:35.924Z,9420.00
2018-02-20T10:57:35.942Z,9340.00
2018-02-20T10:58:35.943Z,9204.00
2018-02-20T10:59:35.957Z,9180.00
2018-02-20T11:00:35.964Z,9068.00
2018-02-20T11:01:35.972Z,9020.00
2018-02-20T11:02:35.996Z,9072.00
2018-02-20T11:03:35.996Z,8968.00
2018-02-20T11:04:36.012Z,8996.00
2018-02-20T11:05:36.021Z,8872.00
2018-02-20T11:06:36.042Z,8896.00
2018-02-20T11:07:36.057Z,8876.00
2018-02-20T11:08:36.063Z,8812.00
2018-02-20T11:09:36.070Z,8884.00
2018-02-20T11:10:36.099Z,8904.00
2018-02-20T11:11:36.101Z,8880.00
2018-02-20T11:12:36.113Z,8716.00
2018-02-20T11:13:36.117Z,8748.00
2018-02-20T11:14:36.135Z,8748.00
2018-02-20T11:15:36.151Z,8728.00
2018-02-20T11:16:36.152Z,8720.00
2018-02-20T11:17:36.166Z,8716.00
2018-02-20T11:18:36.190Z,8736.00
2018-02-20T11:19:36.208Z,8596.00
2018-02-20T11:20:36.210Z,8648.00
2018-02-20T11:21:36.216Z,8648.00
2018-02-20T11:22:36.230Z,8536.00
2018-02-20T11:23:36.244Z,8376.00
2018-02-20T11:24:36.247Z,8420.00
2018-02-20T11:25:36.257Z,8236.00
2018-02-20T11:26:36.281Z,8072.00
2018-02-20T11:27:36.288Z,7944.00
2018-02-20T11:28:36.304Z,7844.00
2018-02-20T11:29:36.311Z,7864.00
2018-02-20T11:30:36.331Z,7600.00
2018-02-20T11:31:36.344Z,7620.00
2018-02-20T11:32:36.346Z,7756.00
2018-02-20T11:33:36.366Z,7776.00
2018-02-20T11:34:36.377Z,7716.00
2018-02-20T11:35:36.387Z,7616.00
2018-02-20T11:36:36.399Z,7608.00
2018-02-20T11:37:36.422Z,7668.00
2018-02-20T11:38:36.459Z,7752.00
2018-02-20T11:39:36.439Z,7808.00
2018-02-20T11:40:36.443Z,7752.00
2018-02-20T11:41:36.462Z,7648.00
2018-02-20T11:42:36.476Z,7552.00
2018-02-20T11:43:36.478Z,7512.00
2018-02-20T11:44:36.508Z,7544.00
2018-02-20T11:45:36.514Z,7556.00
2018-02-20T11:46:36.522Z,7496.00
2018-02-20T11:47:36.534Z,7436.00
2018-02-20T11:48:36.554Z,7408.00
2018-02-20T11:49:36.559Z,7448.00
2018-02-20T11:50:36.572Z,7516.00
2018-02-20T11:51:36.599Z,7472.00
2018-02-20T11:52:36.601Z,7488.00
2018-02-20T11:53:36.613Z,7504.00
2018-02-20T11:54:36.628Z,7464.00
2018-02-20T11:55:36.639Z,7480.00
2018-02-20T11:56:36.659Z,7448.00
2018-02-20T11:57:36.661Z,7452.00
2018-02-20T11:58:36.680Z,7480.00
2018-02-20T11:59:36.688Z,7480.00
2018-02-20T12:00:36.691Z,7508.00
2018-02-20T12:01:36.719Z,7512.00
2018-02-20T12:02:36.727Z,7504.00
2018-02-20T12:03:36.733Z,7448.00
2018-02-20T12:04:36.745Z,7356.00
2018-02-20T12:05:36.768Z,7300.00
2018-02-20T12:06:36.782Z,7268.00
2018-02-20T12:07:36.788Z,7232.00
2018-02-20T12:08:36.806Z,7200.00
2018-02-20T12:09:36.811Z,7212.00
2018-02-20T12:10:36.828Z,7256.00
2018-02-20T12:11:36.830Z,7240.00
2018-02-20T12:12:36.854Z,7140.00
2018-02-20T12:13:36.863Z,7048.00
2018-02-20T12:14:36.866Z,6960.00
2018-02-20T12:15:36.907Z,6900.00
2018-02-20T12:16:36.917Z,6848.00
2018-02-20T12:17:36.907Z,6776.00
2018-02-20T12:18:36.936Z,6772.00
2018-02-20T12:19:36.942Z,6748.00
2018-02-20T12:20:36.953Z,6748.00
2018-02-20T12:21:36.958Z,6752.00
2018-02-20T12:22:36.977Z,6760.00
2018-02-20T12:23:37.000Z,6716.00
2018-02-20T12:24:36.994Z,6656.00
2018-02-20T12:25:37.014Z,6636.00
2018-02-20T12:26:37.032Z,6648.00
2018-02-20T12:27:37.034Z,6652.00
2018-02-20T12:28:37.108Z,6672.00
2018-02-20T12:29:37.073Z,6692.00
2018-02-20T12:30:37.075Z,6684.00
2018-02-20T12:31:37.086Z,6692.00
2018-02-20T12:32:37.102Z,6676.00
2018-02-20T12:33:37.118Z,6724.00
2018-02-20T12:34:37.124Z,6744.00
2018-02-20T12:35:37.142Z,6732.00
2018-02-20T12:36:37.156Z,6736.00
2018-02-20T12:37:37.169Z,6768.00
2018-02-20T12:38:37.181Z,6792.00
2018-02-20T12:39:37.201Z,6820.00